createdAt,value
2023-01-17T00:02:08.382Z,7.38
2023-01-17T00:04:53.624Z,8.88
2023-01-17T00:07:40.049Z,8.02
2023-01-17T00:10:08.376Z,6.60
2023-01-17T00:12:35.225Z,7.95
2023-01-17T00:15:02.096Z,10.40
2023-01-17T00:17:29.421Z,8.25
2023-01-17T00:20:14.726Z,8.05
2023-01-17T00:23:01.603Z,7.65
2023-01-17T00:25:46.958Z,7.22
2023-01-17T00:28:13.553Z,7.70
2023-01-17T00:30:40.144Z,6.97
2023-01-17T00:33:06.907Z,6.85
2023-01-17T00:35:33.631Z,8.90
2023-01-17T00:38:01.101Z,6.65
2023-01-17T00:40:27.745Z,8.43
2023-01-17T00:42:54.282Z,6.05
2023-01-17T00:45:39.632Z,7.13
2023-01-17T00:48:24.640Z,7.35
2023-01-17T00:51:10.128Z,9.10
2023-01-17T00:53:55.566Z,6.30
2023-01-17T00:56:40.614Z,6.85
2023-01-17T00:59:25.977Z,7.00
2023-01-17T01:02:11.243Z,6.38
2023-01-17T01:04:56.672Z,6.30
2023-01-17T01:07:41.682Z,7.03
2023-01-17T01:10:27.122Z,7.60
2023-01-17T01:13:12.605Z,5.35
2023-01-17T01:15:57.868Z,8.02
2023-01-17T01:18:43.337Z,7.82
2023-01-17T01:21:28.361Z,5.75
2023-01-17T01:24:13.689Z,6.10
2023-01-17T01:26:59.094Z,5.03
2023-01-17T01:29:44.445Z,5.50
2023-01-17T01:32:29.736Z,6.13
2023-01-17T01:34:56.300Z,9.50
2023-01-17T01:37:22.867Z,6.53
2023-01-17T01:39:49.460Z,5.70
2023-01-17T01:42:16.551Z,5.63
2023-01-17T01:44:50.858Z,4.85
2023-01-17T01:47:35.786Z,5.70
2023-01-17T01:50:04.295Z,5.05
2023-01-17T01:52:31.928Z,9.63
2023-01-17T01:55:04.115Z,5.35
2023-01-17T01:57:33.877Z,6.20
2023-01-17T02:00:06.533Z,5.22
2023-01-17T02:02:38.899Z,5.70
2023-01-17T02:05:05.821Z,5.35
2023-01-17T02:07:34.610Z,6.60
2023-01-17T02:10:02.234Z,5.55
2023-01-17T02:12:28.816Z,5.60
2023-01-17T02:14:55.694Z,4.55
2023-01-17T02:17:39.332Z,4.00
2023-01-17T02:20:05.868Z,4.93
2023-01-17T02:22:35.308Z,4.53
2023-01-17T02:25:20.518Z,5.63
2023-01-17T02:28:00.071Z,5.95
2023-01-17T02:30:26.985Z,6.60
2023-01-17T02:32:56.682Z,4.78
2023-01-17T02:35:28.980Z,4.18
2023-01-17T02:38:03.347Z,4.32
2023-01-17T02:40:34.419Z,5.35
2023-01-17T02:43:05.611Z,4.90
2023-01-17T02:45:32.280Z,4.78
2023-01-17T02:47:58.847Z,5.43
2023-01-17T02:50:37.931Z,4.18
2023-01-17T02:53:23.175Z,4.32
2023-01-17T02:56:04.846Z,3.50
2023-01-17T02:58:34.236Z,4.32
2023-01-17T03:01:09.634Z,3.83
2023-01-17T03:03:39.040Z,5.03
2023-01-17T03:06:20.664Z,4.43
2023-01-17T03:08:48.433Z,4.35
2023-01-17T03:11:14.989Z,4.20
2023-01-17T03:13:42.247Z,4.03
2023-01-17T03:16:12.755Z,4.45
2023-01-17T03:18:39.453Z,4.32
2023-01-17T03:21:06.097Z,3.97
2023-01-17T03:23:32.640Z,4.40
2023-01-17T03:25:59.247Z,3.88
2023-01-17T03:28:25.777Z,4.88
2023-01-17T03:30:52.546Z,4.15
2023-01-17T03:33:19.435Z,3.85
2023-01-17T03:35:46.279Z,4.28
2023-01-17T03:38:12.853Z,4.20
2023-01-17T03:40:39.479Z,4.22
2023-01-17T03:43:06.095Z,4.25
2023-01-17T03:45:32.722Z,4.00
2023-01-17T03:47:59.961Z,3.42
2023-01-17T03:50:26.639Z,3.88
2023-01-17T03:52:53.282Z,3.63
2023-01-17T03:55:19.926Z,4.25
2023-01-17T03:57:46.512Z,4.55
2023-01-17T04:00:13.362Z,3.80
2023-01-17T04:02:39.952Z,3.67
2023-01-17T04:05:06.867Z,3.97
2023-01-17T04:07:33.662Z,3.97
2023-01-17T04:10:00.196Z,3.97
2023-01-17T04:12:26.848Z,3.47
2023-01-17T04:14:53.577Z,4.07
2023-01-17T04:17:20.668Z,4.18
2023-01-17T04:19:47.492Z,3.80
2023-01-17T04:22:14.059Z,4.80
2023-01-17T04:24:40.633Z,3.83
2023-01-17T04:27:07.450Z,3.90
2023-01-17T04:29:34.150Z,3.67
2023-01-17T04:32:00.796Z,3.63
2023-01-17T04:34:27.526Z,3.95
2023-01-17T04:36:54.166Z,3.65
2023-01-17T04:39:20.760Z,3.58
2023-01-17T04:41:47.512Z,3.72
2023-01-17T04:44:14.109Z,4.10
2023-01-17T04:46:40.650Z,4.15
2023-01-17T04:49:07.323Z,3.25
2023-01-17T04:51:33.989Z,3.42
2023-01-17T04:54:00.554Z,4.10
2023-01-17T04:56:27.582Z,2.88
2023-01-17T04:58:56.495Z,3.80
2023-01-17T05:01:23.169Z,3.63
2023-01-17T05:03:49.839Z,5.05
2023-01-17T05:06:16.393Z,3.55
2023-01-17T05:08:42.967Z,3.55
2023-01-17T05:11:09.568Z,4.10
2023-01-17T05:13:36.178Z,4.25
2023-01-17T05:16:02.808Z,5.90
2023-01-17T05:18:29.450Z,6.97
2023-01-17T05:21:00.885Z,3.42
2023-01-17T05:23:27.564Z,2.97
2023-01-17T05:25:54.116Z,3.45
2023-01-17T05:28:20.722Z,3.22
2023-01-17T05:30:47.517Z,4.00
2023-01-17T05:33:14.059Z,3.50
2023-01-17T05:35:40.619Z,3.78
2023-01-17T05:38:07.253Z,3.35
2023-01-17T05:40:34.208Z,4.25
2023-01-17T05:43:01.572Z,3.40
2023-01-17T05:45:29.171Z,3.50
2023-01-17T05:47:56.209Z,3.80
2023-01-17T05:50:24.239Z,3.10
2023-01-17T05:52:55.788Z,2.90
2023-01-17T05:55:22.636Z,3.08
2023-01-17T05:57:49.788Z,3.42
2023-01-17T06:00:16.905Z,3.30
2023-01-17T06:02:43.991Z,3.33
2023-01-17T06:05:11.218Z,4.40
2023-01-17T06:07:37.810Z,3.50
2023-01-17T06:10:05.036Z,3.25
2023-01-17T06:12:32.320Z,3.30
2023-01-17T06:14:58.996Z,3.63
2023-01-17T06:17:25.630Z,3.40
2023-01-17T06:19:52.238Z,3.45
2023-01-17T06:22:18.823Z,3.72
2023-01-17T06:24:45.412Z,3.50
2023-01-17T06:27:12.021Z,3.05
2023-01-17T06:29:38.651Z,10.70
2023-01-17T06:32:05.296Z,3.15
2023-01-17T06:34:31.917Z,3.05
2023-01-17T06:36:58.630Z,3.03
2023-01-17T06:39:25.314Z,3.47
2023-01-17T06:41:51.996Z,3.33
2023-01-17T06:44:18.629Z,2.88
2023-01-17T06:46:45.279Z,3.17
2023-01-17T06:49:11.937Z,2.45
2023-01-17T06:51:38.556Z,3.38
2023-01-17T06:54:05.255Z,2.97
2023-01-17T06:56:32.327Z,3.05
2023-01-17T06:58:59.176Z,3.25
2023-01-17T07:01:26.131Z,3.13
2023-01-17T07:03:52.853Z,2.40
2023-01-17T07:06:19.637Z,5.38
2023-01-17T07:08:47.608Z,3.78
2023-01-17T07:11:14.274Z,5.25
2023-01-17T07:13:41.792Z,4.13
2023-01-17T07:16:09.176Z,4.20
2023-01-17T07:18:35.910Z,3.03
2023-01-17T07:21:02.449Z,3.03
2023-01-17T07:23:29.071Z,2.80
2023-01-17T07:25:56.894Z,2.70
2023-01-17T07:28:23.695Z,3.00
2023-01-17T07:30:50.293Z,3.10
2023-01-17T07:33:17.309Z,2.90
2023-01-17T07:35:44.274Z,3.55
2023-01-17T07:38:14.932Z,4.22
2023-01-17T07:40:42.307Z,3.95
2023-01-17T07:43:15.179Z,3.53
2023-01-17T07:45:45.802Z,3.67
2023-01-17T07:48:12.451Z,8.70
2023-01-17T07:50:39.109Z,2.63
2023-01-17T07:53:05.771Z,3.17
2023-01-17T07:55:32.607Z,3.08
2023-01-17T07:58:00.359Z,3.40
2023-01-17T08:00:29.279Z,3.00
2023-01-17T08:02:58.955Z,4.60
2023-01-17T08:05:26.017Z,5.47
2023-01-17T08:07:52.692Z,3.70
2023-01-17T08:10:19.688Z,7.82
2023-01-17T08:12:49.748Z,4.80
2023-01-17T08:15:17.375Z,3.63
2023-01-17T08:17:53.280Z,3.72
2023-01-17T08:20:20.846Z,3.20
2023-01-17T08:22:47.609Z,2.75
2023-01-17T08:25:14.331Z,3.92
2023-01-17T08:27:40.896Z,3.90
2023-01-17T08:30:07.948Z,5.47
2023-01-17T08:32:34.745Z,3.60
2023-01-17T08:35:01.408Z,5.13
2023-01-17T08:37:27.986Z,6.00
2023-01-17T08:39:54.592Z,6.55
2023-01-17T08:42:21.141Z,6.38
2023-01-17T08:44:47.861Z,11.60
2023-01-17T08:47:14.552Z,4.40
2023-01-17T08:49:41.092Z,2.85
2023-01-17T08:52:07.846Z,3.95
2023-01-17T08:54:34.586Z,6.43
2023-01-17T08:57:03.418Z,4.28
2023-01-17T08:59:30.089Z,2.97
2023-01-17T09:01:58.296Z,3.15
2023-01-17T09:04:25.177Z,7.30
2023-01-17T09:06:51.859Z,9.48
2023-01-17T09:09:18.551Z,8.00
2023-01-17T09:11:45.306Z,13.10
2023-01-17T09:14:12.808Z,7.63
2023-01-17T09:16:39.472Z,7.53
2023-01-17T09:19:06.012Z,6.25
2023-01-17T09:21:32.693Z,5.72
2023-01-17T09:23:59.308Z,6.28
2023-01-17T09:26:27.551Z,5.63
2023-01-17T09:28:54.237Z,5.32
2023-01-17T09:31:21.817Z,293.58
2023-01-17T09:33:49.339Z,332.88
2023-01-17T09:36:16.077Z,375.25
2023-01-17T09:38:42.845Z,235.18
2023-01-17T09:41:32.486Z,190.75
2023-01-17T09:43:59.107Z,208.05
2023-01-17T09:46:28.174Z,184.25
2023-01-17T09:49:17.810Z,180.73
2023-01-17T09:51:44.899Z,176.77
2023-01-17T09:54:34.774Z,152.15
2023-01-17T09:57:04.759Z,143.65
2023-01-17T09:59:45.655Z,135.35
2023-01-17T10:02:26.338Z,148.30
2023-01-17T10:05:11.941Z,129.00
2023-01-17T10:07:44.407Z,122.65
2023-01-17T10:10:29.709Z,124.20
2023-01-17T10:13:15.010Z,110.10
2023-01-17T10:15:49.849Z,116.50
2023-01-17T10:18:39.463Z,118.07
2023-01-17T10:21:11.089Z,113.25
2023-01-17T10:23:56.383Z,105.40
2023-01-17T10:26:26.157Z,111.07
2023-01-17T10:28:54.350Z,101.00
2023-01-17T10:31:22.824Z,106.82
2023-01-17T10:33:49.510Z,101.95
2023-01-17T10:36:23.788Z,106.20
2023-01-17T10:38:57.644Z,93.70
2023-01-17T10:41:33.277Z,93.93
2023-01-17T10:44:04.060Z,88.03
2023-01-17T10:46:39.120Z,90.50
2023-01-17T10:49:05.723Z,92.05
2023-01-17T10:51:50.012Z,93.03
2023-01-17T10:54:16.590Z,90.60
2023-01-17T10:56:43.215Z,82.07
2023-01-17T10:59:18.828Z,74.28
2023-01-17T11:01:45.607Z,83.35
2023-01-17T11:04:38.267Z,82.20
2023-01-17T11:07:15.655Z,74.03
2023-01-17T11:09:46.401Z,75.38
2023-01-17T11:12:39.239Z,69.05
2023-01-17T11:15:05.938Z,67.85
2023-01-17T11:17:33.090Z,73.93
2023-01-17T11:20:17.312Z,71.47
2023-01-17T11:22:46.061Z,68.28
2023-01-17T11:25:22.065Z,58.13
2023-01-17T11:27:58.503Z,61.38
2023-01-17T11:30:29.414Z,61.08
2023-01-17T11:33:00.128Z,64.68
2023-01-17T11:35:29.419Z,59.03
2023-01-17T11:38:04.432Z,65.22
2023-01-17T11:40:31.167Z,57.42
2023-01-17T11:43:05.334Z,55.03
2023-01-17T11:45:32.992Z,56.58
2023-01-17T11:48:09.011Z,52.35
2023-01-17T11:50:39.931Z,48.97
2023-01-17T11:53:13.425Z,50.08
2023-01-17T11:55:40.735Z,46.20
2023-01-17T11:58:12.667Z,51.13
2023-01-17T12:00:46.073Z,45.83
2023-01-17T12:03:30.572Z,45.53
2023-01-17T12:06:08.117Z,47.95
2023-01-17T12:08:40.707Z,44.00
2023-01-17T12:11:22.088Z,44.72
2023-01-17T12:14:02.197Z,42.90
2023-01-17T12:16:36.803Z,37.35
2023-01-17T12:19:22.009Z,27.38
2023-01-17T12:21:51.392Z,28.92
2023-01-17T12:24:41.801Z,31.75
2023-01-17T12:27:24.667Z,18.35
2023-01-17T12:29:58.808Z,28.05
2023-01-17T12:32:45.649Z,16.67
2023-01-17T12:35:17.297Z,16.77
2023-01-17T12:37:45.007Z,15.55
2023-01-17T12:40:13.014Z,21.75
2023-01-17T12:42:41.095Z,20.10
2023-01-17T12:45:11.682Z,16.85
2023-01-17T12:47:43.122Z,16.30
2023-01-17T12:50:25.557Z,16.45
2023-01-17T12:53:10.741Z,16.13
2023-01-17T12:55:53.154Z,18.13
2023-01-17T12:58:34.951Z,16.30
2023-01-17T13:01:04.517Z,15.02
2023-01-17T13:03:57.842Z,16.77
2023-01-17T13:06:31.339Z,14.88
2023-01-17T13:09:01.044Z,16.88
2023-01-17T13:11:30.570Z,20.15
2023-01-17T13:14:00.029Z,12.73
2023-01-17T13:16:26.648Z,15.88
2023-01-17T13:18:53.859Z,14.32
2023-01-17T13:21:30.425Z,12.68
2023-01-17T13:24:02.038Z,14.18
2023-01-17T13:26:28.830Z,13.25
2023-01-17T13:29:01.556Z,10.88
2023-01-17T13:31:48.363Z,11.65
2023-01-17T13:34:27.462Z,14.02
2023-01-17T13:37:04.632Z,10.52
2023-01-17T13:39:49.827Z,10.60
2023-01-17T13:42:19.345Z,12.20
2023-01-17T13:44:46.399Z,11.10
2023-01-17T13:47:18.643Z,11.13
2023-01-17T13:49:47.699Z,10.20
2023-01-17T13:52:20.225Z,13.23
2023-01-17T13:54:51.068Z,10.90
2023-01-17T13:57:27.862Z,10.60
2023-01-17T13:59:56.967Z,11.80
2023-01-17T14:02:32.814Z,9.48
2023-01-17T14:05:15.987Z,11.63
2023-01-17T14:08:02.032Z,15.45
2023-01-17T14:10:28.613Z,9.52
2023-01-17T14:12:55.737Z,11.23
2023-01-17T14:15:23.937Z,12.18
2023-01-17T14:17:51.992Z,12.13
2023-01-17T14:20:19.009Z,9.30
2023-01-17T14:22:50.862Z,9.68
2023-01-17T14:25:19.471Z,9.05
2023-01-17T14:27:48.678Z,9.30
2023-01-17T14:30:18.293Z,7.70
2023-01-17T14:33:08.544Z,7.15
2023-01-17T14:35:36.843Z,4.25
2023-01-17T14:38:05.645Z,3.55
2023-01-17T14:40:33.297Z,4.75
2023-01-17T14:43:13.569Z,3.92
2023-01-17T14:45:41.346Z,4.82
2023-01-17T14:48:15.607Z,2.78
2023-01-17T14:50:45.029Z,3.63
2023-01-17T14:53:12.618Z,4.13
2023-01-17T14:55:39.249Z,3.75
2023-01-17T14:58:05.851Z,2.85
2023-01-17T15:00:38.319Z,2.08
2023-01-17T15:03:04.922Z,5.60
2023-01-17T15:05:31.970Z,3.92
2023-01-17T15:07:59.009Z,4.47
2023-01-17T15:10:27.600Z,4.40
2023-01-17T15:12:55.133Z,2.72
2023-01-17T15:15:32.802Z,2.08
2023-01-17T15:18:08.606Z,2.95
2023-01-17T15:20:35.962Z,3.45
2023-01-17T15:23:03.036Z,1.80
2023-01-17T15:25:30.724Z,3.92
2023-01-17T15:27:57.528Z,2.35
2023-01-17T15:30:25.306Z,77.15
2023-01-17T15:32:52.973Z,361.20
2023-01-17T15:35:20.767Z,294.13
2023-01-17T15:42:42.495Z,89.70
2023-01-17T15:45:15.616Z,91.30
2023-01-17T15:47:42.745Z,82.90
2023-01-17T15:50:27.959Z,70.57
2023-01-17T15:52:56.341Z,66.05
2023-01-17T15:55:30.012Z,66.00
2023-01-17T15:57:56.670Z,392.25
2023-01-17T16:00:38.347Z,187.95
2023-01-17T16:03:19.972Z,82.10
2023-01-17T16:05:46.990Z,82.43
2023-01-17T16:08:16.468Z,82.88
2023-01-17T16:10:43.429Z,40.72
2023-01-17T16:13:10.834Z,24.33
2023-01-17T16:15:38.009Z,12.43
2023-01-17T16:18:06.779Z,4.78
2023-01-17T16:20:37.954Z,6.15
2023-01-17T16:23:04.803Z,8.50
2023-01-17T16:25:35.314Z,4.45
2023-01-17T16:28:02.334Z,4.57
2023-01-17T16:30:30.004Z,2.45
2023-01-17T16:32:59.656Z,3.40
2023-01-17T16:35:27.859Z,1.45
2023-01-17T16:37:55.662Z,2.03
2023-01-17T16:40:23.491Z,1.20
2023-01-17T16:42:50.593Z,1.48
2023-01-17T16:45:17.625Z,1.70
2023-01-17T16:47:46.266Z,1.20
2023-01-17T16:50:13.961Z,1.65
2023-01-17T16:52:40.902Z,1.48
2023-01-17T16:55:09.173Z,1.10
2023-01-17T16:57:35.787Z,1.80
2023-01-17T17:00:02.491Z,1.42
2023-01-17T17:02:29.203Z,1.48
2023-01-17T17:04:55.861Z,1.02
2023-01-17T17:07:22.451Z,0.90
2023-01-17T17:09:50.360Z,1.50
2023-01-17T17:12:17.016Z,1.42
2023-01-17T17:14:43.553Z,1.85
2023-01-17T17:17:10.170Z,1.50
2023-01-17T17:19:36.761Z,24.08
2023-01-17T17:22:03.345Z,21.97
2023-01-17T17:24:30.136Z,21.42
2023-01-17T17:26:56.928Z,19.23
2023-01-17T17:29:23.565Z,20.65
2023-01-17T17:31:50.253Z,18.13
2023-01-17T17:34:16.794Z,14.43
2023-01-17T17:36:43.459Z,15.40
2023-01-17T17:39:13.449Z,15.68
2023-01-17T17:41:41.422Z,17.90
2023-01-17T17:44:08.113Z,12.55
2023-01-17T17:46:35.076Z,9.05
2023-01-17T17:49:01.886Z,10.68
2023-01-17T17:51:32.512Z,14.50
2023-01-17T17:54:01.250Z,18.92
2023-01-17T17:56:28.696Z,12.13
2023-01-17T17:58:55.929Z,17.00
2023-01-17T18:01:24.184Z,16.17
2023-01-17T18:03:51.407Z,10.25
2023-01-17T18:06:17.996Z,13.07
2023-01-17T18:08:44.957Z,22.02
2023-01-17T18:11:14.905Z,10.13
2023-01-17T18:13:42.853Z,14.13
2023-01-17T18:16:13.586Z,15.20
2023-01-17T18:18:41.758Z,11.75
2023-01-17T18:21:10.290Z,8.65
2023-01-17T18:23:37.510Z,8.75
2023-01-17T18:26:04.299Z,11.27
2023-01-17T18:28:30.933Z,12.60
2023-01-17T18:30:57.505Z,13.73
2023-01-17T18:33:24.079Z,13.68
2023-01-17T18:35:54.606Z,9.48
2023-01-17T18:38:21.171Z,9.75
2023-01-17T18:40:47.938Z,11.60
2023-01-17T18:43:14.497Z,10.07
2023-01-17T18:45:41.229Z,11.10
2023-01-17T18:48:07.909Z,10.05
2023-01-17T18:50:34.548Z,11.88
2023-01-17T18:53:01.096Z,8.30
2023-01-17T18:55:27.657Z,7.90
2023-01-17T18:57:54.340Z,8.15
2023-01-17T19:00:21.422Z,8.82
2023-01-17T19:02:48.977Z,7.93
2023-01-17T19:05:18.013Z,8.90
2023-01-17T19:07:44.592Z,8.15
2023-01-17T19:10:11.348Z,6.43
2023-01-17T19:12:37.985Z,27.33
2023-01-17T19:15:04.758Z,12.02
2023-01-17T19:17:32.354Z,6.22
2023-01-17T19:19:59.271Z,10.30
2023-01-17T19:22:25.897Z,6.97
2023-01-17T19:24:53.111Z,5.95
2023-01-17T19:27:19.784Z,3.97
2023-01-17T19:29:46.346Z,6.18
2023-01-17T19:32:13.081Z,5.47
2023-01-17T19:34:39.668Z,11.57
2023-01-17T19:37:06.512Z,5.32
2023-01-17T19:39:33.309Z,4.20
2023-01-17T19:42:00.024Z,3.75
2023-01-17T19:44:26.602Z,5.13
2023-01-17T19:46:53.216Z,8.95
2023-01-17T19:49:24.587Z,4.53
2023-01-17T19:51:51.815Z,3.28
2023-01-17T19:54:18.510Z,2.92
2023-01-17T19:56:45.038Z,6.20
2023-01-17T19:59:14.095Z,6.22
2023-01-17T20:01:40.778Z,6.25
2023-01-17T20:04:07.415Z,8.52
2023-01-17T20:06:35.362Z,7.05
2023-01-17T20:09:02.168Z,7.40
2023-01-17T20:11:29.229Z,5.78
2023-01-17T20:13:56.759Z,4.90
2023-01-17T20:16:24.105Z,7.18
2023-01-17T20:18:51.037Z,4.43
2023-01-17T20:21:17.655Z,4.18
2023-01-17T20:23:46.926Z,2.40
2023-01-17T20:26:14.653Z,4.72
2023-01-17T20:28:41.898Z,3.88
2023-01-17T20:31:09.647Z,2.97
2023-01-17T20:33:36.446Z,2.88
2023-01-17T20:36:10.696Z,4.63
2023-01-17T20:38:44.218Z,3.45
2023-01-17T20:41:13.935Z,2.63
2023-01-17T20:43:41.005Z,3.30
2023-01-17T20:46:07.982Z,3.72
2023-01-17T20:48:34.752Z,3.90
2023-01-17T20:51:10.590Z,3.90
2023-01-17T20:53:38.380Z,4.85
2023-01-17T20:56:05.575Z,2.80
2023-01-17T20:58:33.239Z,6.45
2023-01-17T21:00:59.919Z,3.67
2023-01-17T21:03:29.881Z,6.53
2023-01-17T21:06:01.809Z,3.67
2023-01-17T21:08:31.954Z,5.60
2023-01-17T21:10:58.533Z,8.77
2023-01-17T21:13:25.067Z,7.57
2023-01-17T21:15:52.032Z,12.02
2023-01-17T21:18:20.129Z,9.88
2023-01-17T21:20:47.017Z,11.00
2023-01-17T21:23:17.982Z,7.47
2023-01-17T21:25:55.667Z,4.38
2023-01-17T21:28:23.379Z,4.22
2023-01-17T21:30:50.011Z,5.30
2023-01-17T21:33:17.118Z,6.03
2023-01-17T21:35:44.074Z,5.05
2023-01-17T21:38:10.956Z,5.30
2023-01-17T21:40:37.515Z,6.05
2023-01-17T21:43:04.111Z,8.48
2023-01-17T21:45:32.263Z,3.45
2023-01-17T21:47:59.009Z,6.15
2023-01-17T21:50:33.240Z,6.97
2023-01-17T21:53:00.067Z,4.82
2023-01-17T21:55:45.293Z,10.43
2023-01-17T21:58:32.222Z,3.90
2023-01-17T22:01:08.881Z,6.53
2023-01-17T22:03:36.003Z,3.63
2023-01-17T22:06:04.253Z,2.22
2023-01-17T22:08:35.431Z,3.72
2023-01-17T22:11:02.895Z,4.47
2023-01-17T22:13:30.788Z,3.35
2023-01-17T22:18:23.938Z,4.20
2023-01-17T22:20:50.857Z,6.25
2023-01-17T22:23:17.393Z,6.85
2023-01-17T22:25:43.989Z,7.05
2023-01-17T22:28:10.899Z,6.55
2023-01-17T22:30:37.489Z,13.68
2023-01-17T22:33:04.232Z,2.83
2023-01-17T22:35:31.129Z,5.38
2023-01-17T22:37:57.710Z,7.57
2023-01-17T22:40:24.368Z,5.38
2023-01-17T22:42:51.194Z,3.13
2023-01-17T22:45:17.835Z,4.10
2023-01-17T22:47:44.734Z,2.53
2023-01-17T22:50:11.558Z,6.03
2023-01-17T22:52:38.184Z,2.85
2023-01-17T22:55:05.405Z,2.10
2023-01-17T22:57:31.937Z,7.03
2023-01-17T22:59:58.500Z,3.47
2023-01-17T23:02:25.889Z,3.65
2023-01-17T23:04:52.427Z,4.95
2023-01-17T23:07:19.077Z,2.38
2023-01-17T23:09:45.625Z,2.13
2023-01-17T23:12:12.223Z,3.58
2023-01-17T23:14:57.058Z,1.98
2023-01-17T23:17:42.958Z,2.22
2023-01-17T23:20:11.171Z,2.50
2023-01-17T23:22:37.848Z,2.58
2023-01-17T23:25:06.145Z,1.65
2023-01-17T23:27:59.257Z,2.22
2023-01-17T23:30:25.788Z,1.77
2023-01-17T23:32:54.812Z,2.90
2023-01-17T23:35:23.899Z,1.85
2023-01-17T23:38:09.140Z,2.88
2023-01-17T23:40:36.602Z,1.65
2023-01-17T23:43:22.167Z,1.33
2023-01-17T23:45:49.361Z,1.33
2023-01-17T23:48:16.372Z,1.55
2023-01-17T23:50:44.630Z,1.70
2023-01-17T23:53:15.462Z,1.85
2023-01-17T23:55:43.258Z,2.58
